Карточка аэропорта URSS

Внимание!
Информация на этой странице в стадии наполнения.
Если вы не увидели какой-то информации, или заметили неточность - пожалуйста сообщите нам!
Спасибо!
Команда RU-STAFF
Название аэропортаСочи
Название аэропорта (англ.)Sochi
Превышение89 ft. (27.1 m.)
Координаты43°26.634', 39°56.55'
Высота перехода13000 ft
Эшелон переходаQNH>=977hPa: FL150; QNH<977hPa: FL160
Коды ответчика1060-1077
Зона ОрВДРостов-на-Дону РПИ (URRV)
Данные METARURSS 290830Z 07001MPS 9000 -SHRA BKN018 OVC030CB 18/17 Q1015 R02/290060 R06/290060 NOSIG RMK R06/09003MPS MT OBSC QFE760
Проноз погоды (TAF)URSS 290756Z 2909/3009 18004G09MPS 9999 SCT010 BKN030CB OVC100 TEMPO 2909/2912 VRB07G12MPS -TSRA BECMG 2912/2913 28005G10MPS FEW016 SCT030CB BKN100 BECMG 2918/2920 05003G08MPS SCT016 BECMG 2922/2924 SCT040CB BKN100 TEMPO 3000/3006 -TSRA FM300600 18005G10MPS 9999 SCT016 FEW030TCU
NOTAMshow/hide NOTAM
AWOS   TABLE

Информация о ВПП

ВПП Длина ВПП (м.) Покрытие Курс ВПП Частота ILS
062890Цементобетон58111.1
242890Цементобетон238 
022500Цементобетон22110.5
202500Цементобетон202 

Диспетчерские позиции

Позывной Наименование органа УВД Частота
URSS_GNDСочи-Руление119.000
URSS_TWRСочи-Старт121.200
URSS_APPСочи-Подход124.600
URSS_R_APPСочи-Круг119.700
URSS_DELСочи-Деливери132.700
URSSFM1119.000



Спутниковое изображение